createdAt,value
2017-10-11T00:00:53.128Z,99.99
2017-10-11T00:01:53.158Z,99.99
2017-10-11T00:02:53.142Z,99.99
2017-10-11T00:03:53.173Z,99.99
2017-10-11T00:04:53.159Z,99.99
2017-10-11T00:05:53.184Z,99.99
2017-10-11T00:06:53.174Z,99.99
2017-10-11T00:07:53.196Z,99.99
2017-10-11T00:08:53.200Z,99.99
2017-10-11T00:09:53.312Z,99.99
2017-10-11T00:10:53.215Z,99.99
2017-10-11T00:11:53.327Z,99.99
2017-10-11T00:12:53.229Z,99.99
2017-10-11T00:13:53.341Z,99.99
2017-10-11T00:14:53.244Z,99.99
2017-10-11T00:15:53.352Z,99.99
2017-10-11T00:16:53.259Z,99.99
2017-10-11T00:17:53.366Z,99.99
2017-10-11T00:18:53.274Z,99.99
2017-10-11T00:19:53.383Z,99.99
2017-10-11T00:20:53.297Z,99.99
2017-10-11T00:21:53.399Z,99.99
2017-10-11T00:22:53.306Z,99.99
2017-10-11T00:23:53.410Z,99.99
2017-10-11T00:24:53.328Z,99.99
2017-10-11T00:25:53.335Z,99.99
2017-10-11T00:26:53.432Z,99.99
2017-10-11T00:27:53.352Z,99.99
2017-10-11T00:28:53.364Z,99.99
2017-10-11T00:29:53.371Z,99.99
2017-10-11T00:30:53.378Z,99.99
2017-10-11T00:31:53.462Z,99.99
2017-10-11T00:32:53.393Z,99.99
2017-10-11T00:33:53.476Z,99.99
2017-10-11T00:34:53.407Z,99.99
2017-10-11T00:35:53.490Z,99.99
2017-10-11T00:36:53.427Z,99.99
2017-10-11T00:37:53.506Z,99.99
2017-10-11T00:38:53.442Z,99.99
2017-10-11T00:39:53.514Z,99.99
2017-10-11T00:40:53.460Z,99.99
2017-10-11T00:41:53.531Z,99.99
2017-10-11T00:42:53.477Z,99.99
2017-10-11T00:43:53.485Z,99.99
2017-10-11T00:44:53.494Z,99.99
2017-10-11T00:45:53.559Z,99.99
2017-10-11T00:46:53.510Z,99.99
2017-10-11T00:47:53.578Z,99.99
2017-10-11T00:48:53.529Z,99.99
2017-10-11T00:49:53.584Z,99.99
2017-10-11T00:50:53.543Z,99.99
2017-10-11T00:51:53.600Z,99.99
2017-10-11T00:52:53.562Z,99.99
2017-10-11T00:53:53.618Z,99.99
2017-10-11T00:54:53.577Z,99.99
2017-10-11T00:55:53.628Z,99.99
2017-10-11T00:56:53.596Z,99.99
2017-10-11T00:57:53.640Z,99.99
2017-10-11T00:58:53.608Z,99.99
2017-10-11T00:59:53.632Z,99.99
2017-10-11T01:00:53.661Z,99.99
2017-10-11T01:01:53.639Z,99.99
2017-10-11T01:02:53.676Z,99.99
2017-10-11T01:03:53.654Z,99.99
2017-10-11T01:04:53.689Z,99.99
2017-10-11T01:05:53.666Z,99.99
2017-10-11T01:06:53.704Z,99.99
2017-10-11T01:07:53.682Z,99.99
2017-10-11T01:08:53.718Z,99.99
2017-10-11T01:09:53.699Z,99.99
2017-10-11T01:10:53.727Z,99.99
2017-10-11T01:11:53.715Z,99.99
2017-10-11T01:12:53.742Z,99.99
2017-10-11T01:13:53.735Z,99.99
2017-10-11T01:14:53.757Z,99.99
2017-10-11T01:15:53.750Z,99.99
2017-10-11T01:16:53.874Z,99.99
2017-10-11T01:17:53.766Z,99.99
2017-10-11T01:18:53.888Z,99.99
2017-10-11T01:19:53.783Z,99.99
2017-10-11T01:20:53.900Z,99.99
2017-10-11T01:21:53.804Z,99.99
2017-10-11T01:22:53.933Z,99.99
2017-10-11T01:23:53.817Z,99.99
2017-10-11T01:24:53.928Z,99.99
2017-10-11T01:25:53.832Z,99.99
2017-10-11T01:26:53.944Z,99.99
2017-10-11T01:27:53.852Z,99.99
2017-10-11T01:28:53.857Z,99.99
2017-10-11T01:29:53.864Z,99.99
2017-10-11T01:30:53.967Z,99.99
2017-10-11T01:31:53.881Z,99.99
2017-10-11T01:32:53.983Z,99.99
2017-10-11T01:33:53.897Z,99.99
2017-10-11T01:34:53.995Z,99.99
2017-10-11T01:35:53.919Z,99.99
2017-10-11T01:36:54.009Z,99.99
2017-10-11T01:37:53.935Z,99.99
2017-10-11T01:38:54.019Z,99.99
2017-10-11T01:39:53.950Z,99.99
2017-10-11T01:40:54.033Z,99.99
2017-10-11T01:41:53.967Z,99.99
2017-10-11T01:42:53.973Z,99.99
2017-10-11T01:43:53.989Z,99.99
2017-10-11T01:44:55.089Z,99.99
2017-10-11T01:45:54.003Z,99.99
2017-10-11T01:46:54.081Z,99.99
2017-10-11T01:47:54.017Z,99.99
2017-10-11T01:48:54.090Z,99.99
2017-10-11T01:49:54.033Z,99.99
2017-10-11T01:50:54.105Z,99.99
2017-10-11T01:51:54.049Z,99.99
2017-10-11T01:52:54.122Z,99.99
2017-10-11T01:53:54.065Z,99.99
2017-10-11T01:54:54.132Z,99.99
2017-10-11T01:55:54.089Z,99.99
2017-10-11T01:56:54.148Z,99.99
2017-10-11T01:57:54.105Z,99.99
2017-10-11T01:58:54.159Z,99.99
2017-10-11T01:59:54.121Z,99.99
2017-10-11T02:00:54.173Z,99.99
2017-10-11T02:01:54.133Z,99.99
2017-10-11T02:02:54.184Z,99.99
2017-10-11T02:03:54.149Z,99.99
2017-10-11T02:04:54.198Z,99.99
2017-10-11T02:05:54.165Z,99.99
2017-10-11T02:06:54.210Z,99.99
2017-10-11T02:07:54.180Z,99.99
2017-10-11T02:08:54.191Z,99.99
2017-10-11T02:09:54.200Z,99.99
2017-10-11T02:10:54.236Z,99.99
2017-10-11T02:11:54.214Z,99.99
2017-10-11T02:12:54.221Z,99.99
2017-10-11T02:13:54.259Z,99.99
2017-10-11T02:14:54.240Z,99.99
2017-10-11T02:15:54.271Z,99.99
2017-10-11T02:16:54.261Z,99.99
2017-10-11T02:17:54.284Z,99.99
2017-10-11T02:18:54.273Z,99.99
2017-10-11T02:19:54.301Z,99.99
2017-10-11T02:20:54.288Z,99.99
2017-10-11T02:21:54.313Z,99.99
2017-10-11T02:22:54.312Z,99.99
2017-10-11T02:23:54.427Z,99.99
2017-10-11T02:24:54.323Z,99.99
2017-10-11T02:25:54.445Z,99.99
2017-10-11T02:26:54.337Z,99.99
2017-10-11T02:27:54.350Z,99.99
2017-10-11T02:28:54.465Z,99.99
2017-10-11T02:29:54.377Z,99.99
2017-10-11T02:30:54.479Z,99.99
2017-10-11T02:31:54.378Z,99.99
2017-10-11T02:32:54.491Z,99.99
2017-10-11T02:33:54.411Z,99.99
2017-10-11T02:34:54.508Z,99.99
2017-10-11T02:35:54.414Z,99.99
2017-10-11T02:36:54.516Z,99.99
2017-10-11T02:37:54.431Z,99.99
2017-10-11T02:38:54.532Z,99.99
2017-10-11T02:39:54.445Z,99.99
2017-10-11T02:40:54.544Z,99.99
2017-10-11T02:41:54.466Z,99.99
2017-10-11T02:42:54.473Z,99.99
2017-10-11T02:43:54.565Z,99.99
2017-10-11T02:44:54.486Z,99.99
2017-10-11T02:45:54.578Z,99.99
2017-10-11T02:46:54.501Z,99.99
2017-10-11T02:47:54.592Z,99.99
2017-10-11T02:48:54.518Z,99.99
2017-10-11T02:49:54.606Z,99.99
2017-10-11T02:50:54.536Z,99.99
2017-10-11T02:51:54.621Z,99.99
2017-10-11T02:52:54.552Z,99.99
2017-10-11T02:53:54.631Z,99.99
2017-10-11T02:54:54.571Z,99.99
2017-10-11T02:55:54.636Z,99.99
2017-10-11T02:56:54.586Z,99.99
2017-10-11T02:57:54.663Z,99.99
2017-10-11T02:58:54.599Z,99.99
2017-10-11T02:59:54.673Z,99.99
2017-10-11T03:00:54.619Z,99.99
2017-10-11T03:01:54.686Z,99.99
2017-10-11T03:02:54.634Z,99.99
2017-10-11T03:03:54.701Z,99.99
2017-10-11T03:04:54.652Z,99.99
2017-10-11T03:05:54.715Z,99.99
2017-10-11T03:06:54.674Z,99.99
2017-10-11T03:07:54.730Z,99.99
2017-10-11T03:08:54.688Z,99.99
2017-10-11T03:09:54.740Z,99.99
2017-10-11T03:10:54.702Z,99.99
2017-10-11T03:11:54.709Z,99.99
2017-10-11T03:12:54.724Z,99.99
2017-10-11T03:13:54.724Z,99.99
2017-10-11T03:14:54.775Z,99.99
2017-10-11T03:15:54.741Z,99.99
2017-10-11T03:16:54.786Z,99.99
2017-10-11T03:17:54.760Z,99.99
2017-10-11T03:18:54.799Z,99.99
2017-10-11T03:19:54.776Z,99.99
2017-10-11T03:20:54.814Z,99.99
2017-10-11T03:21:54.795Z,99.99
2017-10-11T03:22:54.827Z,99.99
2017-10-11T03:23:54.810Z,99.99
2017-10-11T03:24:55.175Z,99.99
2017-10-11T03:25:54.819Z,99.99
2017-10-11T03:26:54.855Z,99.99
2017-10-11T03:27:54.844Z,99.99
2017-10-11T03:28:54.869Z,99.99
2017-10-11T03:29:54.857Z,99.99
2017-10-11T03:30:54.886Z,99.99
2017-10-11T03:31:54.872Z,99.99
2017-10-11T03:32:54.897Z,99.99
2017-10-11T03:33:54.887Z,99.99
2017-10-11T03:34:54.910Z,99.99
2017-10-11T03:35:54.907Z,99.99
2017-10-11T03:36:55.025Z,99.99
2017-10-11T03:37:54.920Z,99.99
2017-10-11T03:38:55.042Z,99.99
2017-10-11T03:39:54.940Z,99.99
2017-10-11T03:40:54.950Z,99.99
2017-10-11T03:41:54.960Z,99.99
2017-10-11T03:42:55.070Z,99.99
2017-10-11T03:43:54.970Z,99.99
2017-10-11T03:44:55.087Z,99.99
2017-10-11T03:45:54.989Z,99.99
2017-10-11T03:46:55.097Z,99.99
2017-10-11T03:47:55.005Z,99.99
2017-10-11T03:48:55.109Z,99.99
2017-10-11T03:49:55.041Z,99.99
2017-10-11T03:50:55.123Z,99.99
2017-10-11T03:51:55.036Z,99.99
2017-10-11T03:52:55.146Z,99.99
2017-10-11T03:53:55.054Z,99.99
2017-10-11T03:54:55.067Z,99.99
2017-10-11T03:55:55.072Z,99.99
2017-10-11T03:56:55.079Z,99.99
2017-10-11T03:57:55.087Z,99.99
2017-10-11T03:58:55.095Z,99.99
2017-10-11T03:59:55.103Z,99.99
2017-10-11T04:00:55.112Z,99.99
2017-10-11T04:01:55.119Z,99.99
2017-10-11T04:02:55.129Z,99.99
2017-10-11T04:03:55.210Z,99.99
2017-10-11T04:04:55.147Z,99.99
2017-10-11T04:05:55.222Z,99.99
2017-10-11T04:06:55.157Z,99.99
2017-10-11T04:07:55.237Z,99.99
2017-10-11T04:08:55.178Z,99.99
2017-10-11T04:09:55.253Z,99.99
2017-10-11T04:10:55.193Z,99.99
2017-10-11T04:11:55.263Z,99.99
2017-10-11T04:12:55.213Z,99.99
2017-10-11T04:13:55.278Z,99.99
2017-10-11T04:14:55.231Z,99.99
2017-10-11T04:15:55.293Z,99.99
2017-10-11T04:16:55.250Z,99.99
2017-10-11T04:17:55.257Z,99.99
2017-10-11T04:18:55.315Z,99.99
2017-10-11T04:19:55.272Z,99.99
2017-10-11T04:20:55.324Z,99.99
2017-10-11T04:21:55.289Z,99.99
2017-10-11T04:22:55.347Z,99.99
2017-10-11T04:23:55.300Z,99.99
2017-10-11T04:24:55.357Z,99.99
2017-10-11T04:25:55.314Z,99.99
2017-10-11T04:26:55.372Z,99.99
2017-10-11T04:27:55.330Z,99.99
2017-10-11T04:28:55.381Z,99.99
2017-10-11T04:29:55.346Z,99.99
2017-10-11T04:30:55.394Z,99.99
2017-10-11T04:31:55.364Z,99.99
2017-10-11T04:32:55.371Z,99.99
2017-10-11T04:33:55.414Z,99.99
2017-10-11T04:34:55.386Z,99.99
2017-10-11T04:35:55.427Z,99.99
2017-10-11T04:36:55.407Z,99.99
2017-10-11T04:37:55.440Z,99.99
2017-10-11T04:38:55.422Z,99.99
2017-10-11T04:39:55.456Z,99.99
2017-10-11T04:40:55.436Z,99.99
2017-10-11T04:41:56.500Z,99.99
2017-10-11T04:42:55.454Z,99.99
2017-10-11T04:43:55.484Z,99.99
2017-10-11T04:44:55.475Z,99.99
2017-10-11T04:45:56.448Z,99.99
2017-10-11T04:46:55.487Z,99.99
2017-10-11T04:47:55.614Z,99.99
2017-10-11T04:48:55.511Z,99.99
2017-10-11T04:49:55.632Z,99.99
2017-10-11T04:50:55.521Z,99.99
2017-10-11T04:51:55.645Z,99.99
2017-10-11T04:52:56.455Z,99.99
2017-10-11T04:53:55.556Z,99.99
2017-10-11T04:54:55.555Z,99.99
2017-10-11T04:55:55.666Z,99.99
2017-10-11T04:56:55.570Z,99.99
2017-10-11T04:57:55.682Z,99.99
2017-10-11T04:58:55.586Z,99.99
2017-10-11T04:59:55.692Z,99.99
2017-10-11T05:00:55.605Z,99.99
2017-10-11T05:01:55.707Z,99.99
2017-10-11T05:02:55.618Z,99.99
2017-10-11T05:03:55.625Z,99.99
2017-10-11T05:04:55.727Z,99.99
2017-10-11T05:05:55.656Z,99.99
2017-10-11T05:06:55.740Z,99.99
2017-10-11T05:07:55.660Z,99.99
2017-10-11T05:08:55.756Z,99.99
2017-10-11T05:09:55.678Z,99.99
2017-10-11T05:10:55.767Z,99.99
2017-10-11T05:11:55.690Z,99.99
2017-10-11T05:12:55.784Z,99.99
2017-10-11T05:13:55.712Z,99.99
2017-10-11T05:14:55.797Z,99.99
2017-10-11T05:15:55.728Z,99.99
2017-10-11T05:16:55.810Z,99.99
2017-10-11T05:17:55.748Z,99.99
2017-10-11T05:18:55.753Z,99.99
2017-10-11T05:19:55.829Z,99.99
2017-10-11T05:20:55.765Z,99.99
2017-10-11T05:21:55.843Z,99.99
2017-10-11T05:22:55.781Z,99.99
2017-10-11T05:23:55.855Z,99.99
2017-10-11T05:24:55.806Z,99.99
2017-10-11T05:25:55.871Z,99.99
2017-10-11T05:26:55.820Z,99.99
2017-10-11T05:27:55.885Z,99.99
2017-10-11T05:28:55.834Z,99.99
2017-10-11T05:29:55.897Z,99.99
2017-10-11T05:30:55.850Z,99.99
2017-10-11T05:31:55.910Z,99.99
2017-10-11T05:32:55.860Z,99.99
2017-10-11T05:33:55.868Z,99.99
2017-10-11T05:34:55.930Z,99.99
2017-10-11T05:35:55.887Z,99.99
2017-10-11T05:36:55.947Z,99.99
2017-10-11T05:37:55.903Z,99.99
2017-10-11T05:38:55.960Z,99.99
2017-10-11T05:39:55.921Z,99.99
2017-10-11T05:40:55.976Z,99.99
2017-10-11T05:41:55.940Z,99.99
2017-10-11T05:42:55.988Z,99.99
2017-10-11T05:43:55.957Z,99.99
2017-10-11T05:44:55.999Z,99.99
2017-10-11T05:45:55.972Z,99.99
2017-10-11T05:46:56.016Z,99.99
2017-10-11T05:47:55.988Z,99.99
2017-10-11T05:48:56.026Z,99.99
2017-10-11T05:49:56.011Z,99.99
2017-10-11T05:50:56.041Z,99.99
2017-10-11T05:51:56.021Z,99.99
2017-10-11T05:52:56.025Z,99.99
2017-10-11T05:53:56.038Z,99.99
2017-10-11T05:54:56.066Z,99.99
2017-10-11T05:55:56.056Z,99.99
2017-10-11T05:56:56.080Z,99.99
2017-10-11T05:57:56.071Z,99.99
2017-10-11T05:58:56.090Z,99.99
2017-10-11T05:59:56.087Z,99.99
2017-10-11T06:00:56.105Z,99.99
2017-10-11T06:01:56.100Z,99.99
2017-10-11T06:02:57.145Z,99.99
2017-10-11T06:03:56.128Z,99.99
2017-10-11T06:04:56.234Z,99.99
2017-10-11T06:05:56.166Z,99.99
2017-10-11T06:06:56.266Z,99.99
2017-10-11T06:07:56.157Z,99.99
2017-10-11T06:08:56.161Z,99.99
2017-10-11T06:09:56.274Z,99.99
2017-10-11T06:10:56.184Z,99.99
2017-10-11T06:11:56.285Z,99.99
2017-10-11T06:12:56.192Z,99.99
2017-10-11T06:13:56.301Z,99.99
2017-10-11T06:14:56.215Z,99.99
2017-10-11T06:15:56.312Z,99.99
2017-10-11T06:16:56.227Z,99.99
2017-10-11T06:17:56.327Z,99.99
2017-10-11T06:18:56.245Z,99.99
2017-10-11T06:19:56.338Z,99.99
2017-10-11T06:20:56.260Z,99.99
2017-10-11T06:21:56.353Z,99.99
2017-10-11T06:22:56.280Z,99.99
2017-10-11T06:23:56.368Z,99.99
2017-10-11T06:24:56.292Z,99.99
2017-10-11T06:25:56.381Z,99.99
2017-10-11T06:26:56.304Z,99.99
2017-10-11T06:27:56.393Z,99.99
2017-10-11T06:28:56.326Z,99.99
2017-10-11T06:29:56.408Z,99.99
2017-10-11T06:30:56.341Z,99.99
2017-10-11T06:31:56.419Z,99.99
2017-10-11T06:32:56.355Z,99.99
2017-10-11T06:33:56.432Z,99.99
2017-10-11T06:34:56.367Z,99.99
2017-10-11T06:35:56.377Z,99.99
2017-10-11T06:36:56.387Z,99.99
2017-10-11T06:37:56.463Z,99.99
2017-10-11T06:38:56.401Z,99.99
2017-10-11T06:39:56.481Z,99.99
2017-10-11T06:40:56.421Z,99.99
2017-10-11T06:41:56.489Z,99.99
2017-10-11T06:42:56.435Z,99.99
2017-10-11T06:43:56.505Z,99.99
2017-10-11T06:44:56.452Z,99.99
2017-10-11T06:45:56.562Z,99.99
2017-10-11T06:46:56.465Z,99.99
2017-10-11T06:47:56.532Z,99.99
2017-10-11T06:48:56.479Z,99.99
2017-10-11T06:49:56.546Z,99.99
2017-10-11T06:50:56.508Z,99.99
2017-10-11T06:51:56.559Z,99.99
2017-10-11T06:52:56.520Z,99.99
2017-10-11T06:53:56.571Z,99.99
2017-10-11T06:54:56.536Z,99.99
2017-10-11T06:55:56.582Z,99.99
2017-10-11T06:56:56.550Z,99.99
2017-10-11T06:57:56.587Z,99.99
2017-10-11T06:58:56.569Z,99.99
2017-10-11T06:59:56.613Z,99.99
2017-10-11T07:00:56.584Z,99.99
2017-10-11T07:01:56.596Z,99.99
2017-10-11T07:02:56.624Z,99.99
2017-10-11T07:03:56.603Z,99.99
2017-10-11T07:04:56.644Z,99.99
2017-10-11T07:05:56.631Z,99.99
2017-10-11T07:06:56.656Z,99.99
2017-10-11T07:07:56.666Z,99.99
2017-10-11T07:08:56.669Z,99.99
2017-10-11T07:09:56.660Z,99.99
2017-10-11T07:10:56.662Z,99.99
2017-10-11T07:11:56.692Z,99.99
2017-10-11T07:12:56.676Z,99.99
2017-10-11T07:13:56.705Z,99.99
2017-10-11T07:14:56.707Z,99.99
2017-10-11T07:15:56.718Z,99.99
2017-10-11T07:16:56.713Z,99.99
2017-10-11T07:17:56.835Z,99.99
2017-10-11T07:18:56.724Z,99.99
2017-10-11T07:19:56.846Z,99.99
2017-10-11T07:20:56.746Z,99.99
2017-10-11T07:21:56.862Z,99.99
2017-10-11T07:22:56.763Z,99.99
2017-10-11T07:23:56.876Z,99.99
2017-10-11T07:24:56.775Z,99.99
2017-10-11T07:25:56.891Z,99.99
2017-10-11T07:26:56.796Z,99.99
2017-10-11T07:27:56.903Z,99.99
2017-10-11T07:28:56.813Z,99.99
2017-10-11T07:29:56.918Z,99.99
2017-10-11T07:30:56.847Z,99.99
2017-10-11T07:31:56.927Z,99.99
2017-10-11T07:32:56.841Z,99.99
2017-10-11T07:33:56.942Z,99.99
2017-10-11T07:34:56.862Z,99.99
2017-10-11T07:35:57.296Z,99.99
2017-10-11T07:36:56.878Z,99.99
2017-10-11T07:37:57.094Z,99.99
2017-10-11T07:38:56.892Z,99.99
2017-10-11T07:39:56.984Z,99.99
2017-10-11T07:40:56.909Z,99.99
2017-10-11T07:41:57.001Z,99.99
2017-10-11T07:42:56.923Z,99.99
2017-10-11T07:43:57.011Z,99.99
2017-10-11T07:44:56.944Z,99.99
2017-10-11T07:45:58.047Z,99.99
2017-10-11T07:46:56.957Z,99.99
2017-10-11T07:47:57.033Z,99.99
2017-10-11T07:48:56.970Z,99.99
2017-10-11T07:49:58.074Z,99.99
2017-10-11T07:50:56.989Z,99.99
2017-10-11T07:51:57.068Z,99.99
2017-10-11T07:52:57.002Z,99.99
2017-10-11T07:53:57.081Z,99.99
2017-10-11T07:54:57.020Z,99.99
2017-10-11T07:55:57.095Z,99.99
2017-10-11T07:56:57.038Z,99.99
2017-10-11T07:57:57.105Z,99.99
2017-10-11T07:58:57.048Z,99.99
2017-10-11T07:59:57.127Z,99.99
2017-10-11T08:00:57.089Z,99.99
2017-10-11T08:01:57.134Z,99.99
2017-10-11T08:02:57.091Z,99.99
2017-10-11T08:03:57.153Z,99.99
2017-10-11T08:04:57.104Z,99.99
2017-10-11T08:05:57.163Z,99.99
2017-10-11T08:06:57.118Z,99.99
2017-10-11T08:07:57.179Z,99.99
2017-10-11T08:08:57.135Z,99.99
2017-10-11T08:09:57.218Z,99.99
2017-10-11T08:10:57.154Z,99.99
2017-10-11T08:11:57.218Z,99.99
2017-10-11T08:12:57.179Z,99.99
2017-10-11T08:13:57.219Z,99.99
2017-10-11T08:14:57.189Z,99.99
2017-10-11T08:15:57.232Z,99.99
2017-10-11T08:16:57.201Z,99.99
2017-10-11T08:17:57.246Z,99.99
2017-10-11T08:18:57.215Z,99.99
2017-10-11T08:19:57.345Z,99.99
2017-10-11T08:20:57.232Z,99.99
2017-10-11T08:21:57.364Z,99.99
2017-10-11T08:22:57.261Z,99.99
2017-10-11T08:23:57.367Z,99.99
2017-10-11T08:24:57.266Z,99.99
2017-10-11T08:25:57.386Z,99.99
2017-10-11T08:26:57.283Z,99.99
2017-10-11T08:27:57.392Z,99.99
2017-10-11T08:28:57.296Z,99.99
2017-10-11T08:29:57.403Z,99.99
2017-10-11T08:30:57.313Z,99.99
2017-10-11T08:31:57.421Z,99.99
2017-10-11T08:32:57.345Z,99.99
2017-10-11T08:33:57.434Z,99.99
2017-10-11T08:34:57.348Z,99.99
2017-10-11T08:35:57.451Z,99.99
2017-10-11T08:36:57.368Z,99.99
2017-10-11T08:37:57.462Z,99.99
2017-10-11T08:38:57.376Z,99.99
2017-10-11T08:39:57.477Z,99.99
2017-10-11T08:40:57.411Z,99.99
2017-10-11T08:41:57.485Z,99.99
2017-10-11T08:42:57.409Z,99.99
2017-10-11T08:43:57.502Z,99.99
2017-10-11T08:44:57.424Z,99.99
2017-10-11T08:45:57.509Z,99.99
2017-10-11T08:46:57.442Z,99.99
2017-10-11T08:47:57.522Z,99.99
2017-10-11T08:48:57.472Z,99.99
2017-10-11T08:49:57.560Z,99.99
2017-10-11T08:50:57.486Z,99.99
2017-10-11T08:51:58.583Z,99.99
2017-10-11T08:52:57.517Z,99.99
2017-10-11T08:53:57.569Z,99.99
2017-10-11T08:54:57.507Z,99.99
2017-10-11T08:55:57.585Z,99.99
2017-10-11T08:56:57.528Z,99.99
2017-10-11T08:57:57.597Z,99.99
2017-10-11T08:58:57.549Z,99.99
2017-10-11T08:59:57.610Z,99.99
2017-10-11T09:00:57.561Z,99.99
2017-10-11T09:01:57.623Z,99.99
2017-10-11T09:02:57.581Z,99.99
2017-10-11T09:03:57.635Z,99.99
2017-10-11T09:04:57.597Z,99.99
2017-10-11T09:05:58.674Z,99.99
2017-10-11T09:06:58.529Z,99.99
2017-10-11T09:07:57.662Z,99.99
2017-10-11T09:08:57.627Z,99.99
2017-10-11T09:09:57.677Z,99.99
2017-10-11T09:10:57.643Z,99.99
2017-10-11T09:11:57.710Z,99.99
2017-10-11T09:12:57.658Z,99.99
2017-10-11T09:13:57.704Z,99.99
2017-10-11T09:14:57.678Z,99.99
2017-10-11T09:15:57.719Z,99.99
2017-10-11T09:16:57.692Z,99.99
2017-10-11T09:17:57.733Z,99.99
2017-10-11T09:18:57.718Z,99.99
2017-10-11T09:19:57.745Z,99.99
2017-10-11T09:20:57.727Z,99.99
2017-10-11T09:21:57.759Z,99.99
2017-10-11T09:22:57.764Z,99.99
2017-10-11T09:23:57.776Z,99.99
2017-10-11T09:24:57.761Z,99.99
2017-10-11T09:25:57.786Z,99.99
2017-10-11T09:26:57.775Z,99.99
2017-10-11T09:27:57.799Z,99.99
2017-10-11T09:28:57.792Z,99.99
2017-10-11T09:29:57.816Z,99.99
2017-10-11T09:30:57.809Z,99.99
2017-10-11T09:31:57.931Z,99.99
2017-10-11T09:32:57.825Z,99.99
2017-10-11T09:33:57.831Z,99.99
2017-10-11T09:34:57.952Z,99.99
2017-10-11T09:35:57.850Z,99.99
2017-10-11T09:36:57.864Z,99.99
2017-10-11T09:37:57.866Z,99.99
2017-10-11T09:38:57.977Z,99.99
2017-10-11T09:39:57.883Z,99.99
2017-10-11T09:40:57.992Z,99.99
2017-10-11T09:41:57.903Z,99.99
2017-10-11T09:42:57.910Z,99.99
2017-10-11T09:43:57.915Z,99.99
2017-10-11T09:44:58.019Z,99.99
2017-10-11T09:45:57.935Z,99.99
2017-10-11T09:46:58.032Z,99.99
2017-10-11T09:47:57.950Z,99.99
2017-10-11T09:48:59.071Z,99.99
2017-10-11T09:49:57.973Z,99.99
2017-10-11T09:50:58.059Z,99.99
2017-10-11T09:51:57.981Z,99.99
2017-10-11T09:52:58.072Z,99.99
2017-10-11T09:53:57.998Z,99.99
2017-10-11T09:54:58.085Z,99.99
2017-10-11T09:55:58.009Z,99.99
2017-10-11T09:56:58.102Z,99.99
2017-10-11T09:57:58.038Z,99.99
2017-10-11T09:58:58.113Z,99.99
2017-10-11T09:59:58.047Z,99.99
2017-10-11T10:00:58.058Z,99.99
2017-10-11T10:01:58.064Z,99.99
2017-10-11T10:02:58.139Z,99.99
2017-10-11T10:03:58.084Z,99.99
2017-10-11T10:04:58.153Z,99.99
2017-10-11T10:05:58.097Z,99.99
2017-10-11T10:06:59.039Z,99.99
2017-10-11T10:07:58.189Z,99.99
2017-10-11T10:08:58.124Z,99.99
2017-10-11T10:09:58.141Z,99.99
2017-10-11T10:10:58.147Z,99.99
2017-10-11T10:11:58.305Z,99.99
2017-10-11T10:12:58.157Z,99.99
2017-10-11T10:13:58.167Z,99.99
2017-10-11T10:14:58.174Z,99.99
2017-10-11T10:15:58.228Z,99.99
2017-10-11T10:16:58.187Z,99.99
2017-10-11T10:17:58.241Z,99.99
2017-10-11T10:18:58.205Z,99.99
2017-10-11T10:19:58.254Z,99.99
2017-10-11T10:20:58.225Z,99.99
2017-10-11T10:21:58.231Z,99.99
2017-10-11T10:22:58.277Z,99.99
2017-10-11T10:23:58.246Z,99.99
2017-10-11T10:24:58.287Z,99.99
2017-10-11T10:25:58.265Z,99.99
2017-10-11T10:26:58.304Z,99.99
2017-10-11T10:27:58.281Z,99.99
2017-10-11T10:28:58.318Z,99.99
2017-10-11T10:29:58.302Z,99.99
2017-10-11T10:30:58.311Z,99.99
2017-10-11T10:31:58.318Z,99.99
2017-10-11T10:32:58.343Z,99.99
2017-10-11T10:33:58.332Z,99.99
2017-10-11T10:34:58.351Z,99.99
2017-10-11T10:35:58.352Z,99.99
2017-10-11T10:36:58.357Z,99.99
2017-10-11T10:37:58.378Z,99.99
2017-10-11T10:38:58.379Z,99.99
2017-10-11T10:39:58.493Z,99.99
2017-10-11T10:40:58.390Z,99.99
2017-10-11T10:41:58.514Z,99.99
2017-10-11T10:42:58.408Z,99.99
2017-10-11T10:43:58.412Z,99.99
2017-10-11T10:44:58.531Z,99.99
2017-10-11T10:45:58.432Z,99.96
2017-10-11T10:46:58.542Z,99.38
2017-10-11T10:47:58.448Z,99.58
2017-10-11T10:48:58.558Z,98.81
2017-10-11T10:49:58.466Z,98.76
2017-10-11T10:50:58.569Z,98.38
2017-10-11T10:51:58.480Z,97.71
2017-10-11T10:52:58.582Z,97.61
2017-10-11T10:53:58.496Z,97.80
2017-10-11T10:54:58.596Z,97.52
2017-10-11T10:55:58.515Z,96.89
2017-10-11T10:56:58.610Z,97.14
2017-10-11T10:57:58.532Z,96.84
2017-10-11T10:58:58.540Z,97.23
2017-10-11T10:59:58.628Z,96.94
2017-10-11T11:00:58.559Z,96.75
2017-10-11T11:01:58.644Z,96.08
2017-10-11T11:02:58.578Z,96.37
2017-10-11T11:03:58.586Z,96.66
2017-10-11T11:04:58.592Z,96.84
2017-10-11T11:05:58.670Z,96.47
2017-10-11T11:06:58.607Z,96.37
2017-10-11T11:07:58.682Z,96.89
2017-10-11T11:08:58.624Z,96.37
2017-10-11T11:09:58.701Z,96.56
2017-10-11T11:10:58.644Z,96.84
2017-10-11T11:11:58.711Z,97.04
2017-10-11T11:12:58.660Z,97.42
2017-10-11T11:13:58.670Z,97.42
2017-10-11T11:14:58.730Z,97.42
2017-10-11T11:15:58.696Z,96.56
2017-10-11T11:16:58.745Z,96.56
2017-10-11T11:17:58.703Z,96.80
2017-10-11T11:18:58.760Z,96.89
2017-10-11T11:19:58.717Z,96.89
2017-10-11T11:20:58.730Z,96.51
2017-10-11T11:21:58.783Z,96.61
2017-10-11T11:22:58.748Z,96.89
2017-10-11T11:23:58.797Z,96.89
2017-10-11T11:24:58.753Z,96.61
2017-10-11T11:25:58.803Z,96.99
2017-10-11T11:26:58.802Z,97.04
2017-10-11T11:27:58.820Z,96.66
2017-10-11T11:28:58.799Z,96.66
2017-10-11T11:29:58.832Z,96.66
2017-10-11T11:30:58.808Z,96.37
2017-10-11T11:31:58.846Z,96.47
2017-10-11T11:32:58.829Z,96.18
2017-10-11T11:33:58.860Z,96.37
2017-10-11T11:34:58.843Z,96.27
2017-10-11T11:35:59.899Z,96.27
2017-10-11T11:36:58.861Z,96.47
2017-10-11T11:37:58.885Z,96.27
2017-10-11T11:38:58.876Z,96.37
2017-10-11T11:39:59.925Z,96.18
2017-10-11T11:40:58.890Z,96.66
2017-10-11T11:41:59.013Z,96.75
2017-10-11T11:42:58.910Z,96.66
2017-10-11T11:43:59.030Z,95.94
2017-10-11T11:44:58.926Z,97.18
2017-10-11T11:45:59.049Z,97.28
2017-10-11T11:46:58.944Z,97.38
2017-10-11T11:47:59.055Z,97.75
2017-10-11T11:48:58.959Z,98.24
2017-10-11T11:49:59.068Z,97.95
2017-10-11T11:50:58.983Z,97.56
2017-10-11T11:51:59.084Z,98.33
2017-10-11T11:52:58.997Z,98.52
2017-10-11T11:53:59.097Z,98.24
2017-10-11T11:54:59.010Z,98.33
2017-10-11T11:55:59.110Z,98.81
2017-10-11T11:56:59.034Z,98.66
2017-10-11T11:57:59.127Z,98.91
2017-10-11T11:58:59.049Z,98.71
2017-10-11T11:59:59.139Z,98.91
2017-10-11T12:00:59.567Z,98.57
2017-10-11T12:02:00.182Z,99.19
2017-10-11T12:02:59.087Z,99.24
2017-10-11T12:03:59.165Z,99.00
2017-10-11T12:04:59.098Z,99.72
2017-10-11T12:06:00.204Z,99.62
2017-10-11T12:06:59.127Z,99.43
2017-10-11T12:07:59.192Z,99.72
2017-10-11T12:08:59.135Z,99.52
2017-10-11T12:09:59.207Z,99.52
2017-10-11T12:10:59.147Z,99.99
2017-10-11T12:11:59.157Z,99.52
2017-10-11T12:12:59.229Z,99.99
2017-10-11T12:13:59.186Z,99.99
2017-10-11T12:14:59.241Z,99.99
2017-10-11T12:15:59.191Z,99.99
2017-10-11T12:16:59.264Z,99.81
2017-10-11T12:17:59.206Z,99.67
2017-10-11T12:18:59.213Z,99.81
2017-10-11T12:19:59.225Z,99.19
2017-10-11T12:20:59.280Z,99.67
2017-10-11T12:21:59.239Z,99.48
2017-10-11T12:22:59.299Z,99.19
2017-10-11T12:23:59.270Z,98.91
2017-10-11T12:24:59.310Z,99.29
2017-10-11T12:25:59.274Z,98.62
2017-10-11T12:26:59.326Z,98.62
2017-10-11T12:27:59.285Z,98.71
2017-10-11T12:28:59.339Z,98.33
2017-10-11T12:29:59.303Z,98.47
2017-10-11T12:30:59.352Z,98.19
2017-10-11T12:31:59.322Z,98.00
2017-10-11T12:32:59.365Z,98.19
2017-10-11T12:33:59.340Z,98.00
2017-10-11T12:34:59.380Z,97.04
2017-10-11T12:35:59.358Z,97.23
2017-10-11T12:36:59.395Z,97.42
2017-10-11T12:37:59.381Z,96.18
2017-10-11T12:39:00.430Z,96.66
2017-10-11T12:39:59.447Z,96.94
2017-10-11T12:41:00.442Z,96.37
2017-10-11T12:41:59.417Z,95.89
2017-10-11T12:42:59.433Z,96.13
2017-10-11T12:43:59.425Z,95.75
2017-10-11T12:44:59.547Z,95.94
2017-10-11T12:45:59.449Z,95.26
2017-10-11T12:46:59.561Z,95.56
2017-10-11T12:47:59.462Z,95.26
2017-10-11T12:48:59.574Z,95.26
2017-10-11T12:49:59.478Z,95.17
2017-10-11T12:50:59.587Z,95.07
2017-10-11T12:51:59.496Z,94.89
2017-10-11T12:52:59.592Z,95.36